Time;durP1;ratioP1;P1;durP2;ratioP2;P2;SDS_P1;SDS_P2;PMS_P1;PMS_P2;Temp;Humidity;BMP_temperature;BMP_pressure;BME280_temperature;BME280_humidity;BME280_pressure;Samples;Min_cycle;Max_cycle;Signal;HPM_P1;HPM_P2
2021/12/12 00:00:31;;;;;;;233.37;84.30;;;;;;;;;;5070281;28;21035;-69
2021/12/12 00:03:10;;;;;;;252.37;89.47;;;;;;;;;;5070980;28;20446;-69
2021/12/12 00:05:39;;;;;;;230.73;84.20;;;;;;;;;;5070738;28;20514;-70
2021/12/12 00:08:07;;;;;;;242.10;90.83;;;;;;;;;;5070614;28;20500;-68
2021/12/12 00:10:36;;;;;;;248.47;86.23;;;;;;;;;;5070197;28;20578;-68
2021/12/12 00:13:07;;;;;;;283.33;90.77;;;;;;;;;;5070550;28;20441;-68
2021/12/12 00:15:35;;;;;;;269.43;86.83;;;;;;;;;;5070884;28;20963;-68
2021/12/12 00:18:04;;;;;;;224.67;89.03;;;;;;;;;;5070437;28;20450;-69
2021/12/12 00:20:32;;;;;;;197.87;78.73;;;;;;;;;;5070384;28;20490;-69
2021/12/12 00:23:00;;;;;;;172.93;75.50;;;;;;;;;;5070632;28;20501;-68
2021/12/12 00:25:29;;;;;;;166.43;74.77;;;;;;;;;;5070470;28;20453;-67
2021/12/12 00:27:56;;;;;;;195.80;84.73;;;;;;;;;;5070461;28;20890;-68
2021/12/12 00:30:24;;;;;;;253.90;90.40;;;;;;;;;;5070400;28;20461;-67
2021/12/12 00:32:52;;;;;;;249.43;89.50;;;;;;;;;;5070664;28;20538;-68
2021/12/12 00:35:23;;;;;;;253.80;92.37;;;;;;;;;;5070428;28;20447;-68
2021/12/12 00:37:54;;;;;;;269.30;98.10;;;;;;;;;;5070098;28;20974;-69
2021/12/12 00:40:24;;;;;;;292.17;93.20;;;;;;;;;;5070415;28;20958;-69
2021/12/12 00:42:52;;;;;;;240.17;88.57;;;;;;;;;;5070371;28;20450;-68
2021/12/12 00:45:20;;;;;;;247.60;91.20;;;;;;;;;;5070476;28;20461;-68
2021/12/12 00:47:48;;;;;;;244.67;90.40;;;;;;;;;;5070328;28;20538;-67
2021/12/12 00:50:17;;;;;;;272.00;88.97;;;;;;;;;;5070144;28;20445;-66
2021/12/12 00:52:48;;;;;;;340.93;98.40;;;;;;;;;;5070578;28;21042;-68
2021/12/12 00:55:15;;;;;;;313.07;96.50;;;;;;;;;;5070302;28;20446;-66
2021/12/12 00:57:44;;;;;;;282.73;88.30;;;;;;;;;;5070008;28;20947;-66
2021/12/12 01:00:13;;;;;;;271.63;96.37;;;;;;;;;;5072701;28;21018;-69
2021/12/12 01:02:41;;;;;;;315.30;97.50;;;;;;;;;;5073893;28;20457;-71
2021/12/12 01:05:09;;;;;;;291.83;90.13;;;;;;;;;;5073801;28;20461;-70
2021/12/12 01:07:37;;;;;;;276.67;91.50;;;;;;;;;;5073787;28;20457;-69
2021/12/12 01:10:09;;;;;;;275.70;92.33;;;;;;;;;;5073920;28;20501;-67
2021/12/12 01:12:37;;;;;;;233.33;84.77;;;;;;;;;;5073854;28;20501;-69
2021/12/12 01:15:06;;;;;;;234.80;83.37;;;;;;;;;;5073621;28;20530;-68
2021/12/12 01:17:38;;;;;;;247.80;88.00;;;;;;;;;;5073560;28;20785;-68
2021/12/12 01:20:09;;;;;;;211.90;85.77;;;;;;;;;;5073638;28;20446;-67
2021/12/12 01:22:38;;;;;;;227.30;82.03;;;;;;;;;;5073702;28;20490;-69
2021/12/12 01:25:11;;;;;;;257.20;87.97;;;;;;;;;;5073477;28;21053;-68
2021/12/12 01:27:39;;;;;;;261.33;86.73;;;;;;;;;;5073183;28;20449;-71
2021/12/12 01:30:08;;;;;;;277.00;88.90;;;;;;;;;;5074069;28;20452;-68
2021/12/12 01:32:37;;;;;;;310.87;93.40;;;;;;;;;;5073391;28;20441;-69
2021/12/12 01:35:13;;;;;;;258.23;85.10;;;;;;;;;;5073738;28;20871;-68
2021/12/12 01:37:44;;;;;;;265.50;92.10;;;;;;;;;;5073316;28;20519;-68
2021/12/12 01:40:17;;;;;;;262.47;89.67;;;;;;;;;;5073413;28;20462;-68
2021/12/12 01:42:46;;;;;;;279.83;86.37;;;;;;;;;;5073167;28;20497;-67
2021/12/12 01:45:15;;;;;;;268.10;84.77;;;;;;;;;;5073402;28;20951;-67
2021/12/12 01:47:46;;;;;;;241.30;90.00;;;;;;;;;;5066313;28;20431;-67
2021/12/12 01:50:15;;;;;;;218.60;81.53;;;;;;;;;;5073398;28;20440;-68
2021/12/12 01:52:44;;;;;;;257.47;86.03;;;;;;;;;;5072875;28;20832;-68
2021/12/12 01:55:21;;;;;;;244.97;86.23;;;;;;;;;;5073196;28;20450;-68
2021/12/12 01:57:48;;;;;;;239.80;87.33;;;;;;;;;;5072946;28;20506;-68
2021/12/12 02:00:19;;;;;;;228.47;84.73;;;;;;;;;;5072677;28;20508;-68
2021/12/12 02:02:46;;;;;;;205.87;84.53;;;;;;;;;;5072913;28;20576;-68
2021/12/12 02:05:17;;;;;;;199.50;78.17;;;;;;;;;;5072650;28;20979;-67
2021/12/12 02:07:46;;;;;;;206.70;82.03;;;;;;;;;;5072806;28;20454;-68
2021/12/12 02:10:23;;;;;;;201.27;78.10;;;;;;;;;;5072003;28;20482;-68
2021/12/12 02:12:51;;;;;;;213.47;81.17;;;;;;;;;;5072862;28;20459;-67
2021/12/12 02:15:19;;;;;;;204.23;79.80;;;;;;;;;;5073003;28;20876;-67
2021/12/12 02:17:48;;;;;;;211.53;83.93;;;;;;;;;;5072520;28;20458;-67
2021/12/12 02:20:21;;;;;;;203.87;85.47;;;;;;;;;;5073018;28;20443;-67
2021/12/12 02:23:06;;;;;;;207.13;76.87;;;;;;;;;;5072589;28;20863;-67
2021/12/12 02:36:37;;;;;;;258.30;88.20;;;;;;;;;;5072256;28;20437;-67
2021/12/12 02:39:15;;;;;;;269.83;87.87;;;;;;;;;;5072079;28;20453;-67
2021/12/12 02:41:42;;;;;;;270.60;93.27;;;;;;;;;;5066662;28;20981;-68
2021/12/12 02:44:10;;;;;;;279.17;92.57;;;;;;;;;;5072244;28;20532;-67
2021/12/12 02:46:40;;;;;;;266.37;85.37;;;;;;;;;;5071919;28;20439;-67
2021/12/12 02:49:22;;;;;;;267.25;90.60;;;;;;;;;;5071804;28;20482;-67
2021/12/12 02:51:50;;;;;;;276.17;94.87;;;;;;;;;;5071770;28;20767;-67
2021/12/12 02:54:19;;;;;;;277.33;92.27;;;;;;;;;;5072220;28;20477;-68
2021/12/12 02:56:47;;;;;;;256.23;85.17;;;;;;;;;;5071972;28;20445;-69
2021/12/12 02:59:16;;;;;;;268.95;86.35;;;;;;;;;;5071821;28;20520;-67
2021/12/12 03:01:45;;;;;;;257.47;81.20;;;;;;;;;;5070904;28;20325;-68
2021/12/12 03:04:13;;;;;;;272.05;84.65;;;;;;;;;;5071627;28;20449;-68
2021/12/12 03:06:42;;;;;;;263.73;85.00;;;;;;;;;;5071864;28;20240;-67
2021/12/12 03:09:12;;;;;;;280.17;87.40;;;;;;;;;;5071524;28;20457;-67
2021/12/12 03:11:41;;;;;;;282.97;90.37;;;;;;;;;;5071495;28;20217;-68
2021/12/12 03:14:09;;;;;;;272.08;84.45;;;;;;;;;;5072077;28;20530;-68
2021/12/12 03:16:37;;;;;;;266.35;83.18;;;;;;;;;;5071746;28;20295;-68
2021/12/12 03:19:05;;;;;;;273.45;83.90;;;;;;;;;;5071308;28;20208;-68
2021/12/12 03:21:34;;;;;;;280.75;85.32;;;;;;;;;;5070525;28;20699;-68
2021/12/12 03:24:03;;;;;;;282.50;87.25;;;;;;;;;;5070997;28;20208;-68
2021/12/12 03:26:30;;;;;;;280.95;86.20;;;;;;;;;;5071208;28;20694;-67
2021/12/12 03:29:00;;;;;;;288.92;87.22;;;;;;;;;;5071199;28;20212;-67
2021/12/12 03:31:29;;;;;;;279.08;84.32;;;;;;;;;;5071300;28;20214;-67
2021/12/12 03:33:59;;;;;;;283.58;90.50;;;;;;;;;;5071092;28;20214;-68
2021/12/12 03:36:26;;;;;;;269.70;83.95;;;;;;;;;;5071428;28;20208;-69
2021/12/12 03:38:56;;;;;;;235.77;79.88;;;;;;;;;;5071152;28;20243;-67
2021/12/12 03:41:26;;;;;;;257.27;81.85;;;;;;;;;;5064841;28;20230;-68
2021/12/12 03:43:55;;;;;;;258.70;82.93;;;;;;;;;;5064277;28;20266;-67
2021/12/12 03:46:24;;;;;;;278.43;82.43;;;;;;;;;;5071398;28;20273;-68
2021/12/12 03:48:51;;;;;;;266.90;82.10;;;;;;;;;;5071071;28;20851;-68
2021/12/12 03:51:20;;;;;;;266.05;79.00;;;;;;;;;;5071056;28;20261;-67
2021/12/12 03:53:47;;;;;;;327.67;93.28;;;;;;;;;;5070538;28;20217;-67
2021/12/12 03:56:16;;;;;;;312.10;86.35;;;;;;;;;;5071039;28;20206;-67
2021/12/12 03:58:44;;;;;;;305.70;85.53;;;;;;;;;;5070851;28;20264;-68
2021/12/12 04:01:13;;;;;;;279.52;83.43;;;;;;;;;;5070470;28;20237;-69
2021/12/12 04:03:43;;;;;;;289.73;84.03;;;;;;;;;;5070782;28;20232;-68
2021/12/12 04:06:13;;;;;;;301.83;85.35;;;;;;;;;;5064268;28;20210;-67
2021/12/12 04:08:45;;;;;;;312.25;85.10;;;;;;;;;;5064068;28;20286;-67
2021/12/12 04:11:14;;;;;;;286.98;82.18;;;;;;;;;;5071037;28;20242;-68
2021/12/12 04:13:43;;;;;;;280.30;78.32;;;;;;;;;;5070578;28;20209;-69
2021/12/12 04:16:10;;;;;;;282.75;81.57;;;;;;;;;;5070725;28;20581;-67
2021/12/12 04:18:38;;;;;;;299.90;82.95;;;;;;;;;;5070526;28;20232;-67
2021/12/12 04:21:07;;;;;;;311.45;86.28;;;;;;;;;;5070543;28;20617;-67
2021/12/12 04:23:34;;;;;;;266.77;80.90;;;;;;;;;;5070687;28;20233;-67
2021/12/12 04:26:16;;;;;;;259.42;76.72;;;;;;;;;;5070252;28;20248;-68
2021/12/12 04:28:43;;;;;;;303.90;84.13;;;;;;;;;;5070590;28;20213;-67
2021/12/12 04:31:11;;;;;;;324.88;88.15;;;;;;;;;;5070317;28;20202;-67
2021/12/12 04:33:38;;;;;;;326.55;83.40;;;;;;;;;;5072890;28;20244;-71
2021/12/12 04:36:07;;;;;;;316.40;85.88;;;;;;;;;;5074621;28;20670;-67
2021/12/12 04:38:35;;;;;;;327.85;88.32;;;;;;;;;;5074302;28;20697;-67
2021/12/12 04:41:02;;;;;;;317.27;85.85;;;;;;;;;;5074429;28;20220;-69
2021/12/12 04:43:30;;;;;;;330.85;86.72;;;;;;;;;;5074212;28;20717;-68
2021/12/12 04:46:05;;;;;;;328.75;87.45;;;;;;;;;;5074051;28;20210;-68
2021/12/12 04:51:27;;;;;;;331.63;84.25;;;;;;;;;;5074373;28;20213;-67
2021/12/12 04:54:01;;;;;;;322.77;90.45;;;;;;;;;;5073798;28;20200;-67
2021/12/12 04:56:30;;;;;;;317.98;86.82;;;;;;;;;;5074453;28;20227;-67
2021/12/12 04:59:00;;;;;;;322.38;81.93;;;;;;;;;;5074001;28;20201;-67
2021/12/12 05:01:32;;;;;;;313.83;81.65;;;;;;;;;;5073748;28;20228;-67
2021/12/12 05:04:01;;;;;;;320.25;80.57;;;;;;;;;;5074451;28;20316;-67
2021/12/12 05:06:34;;;;;;;349.52;89.47;;;;;;;;;;5073929;28;20205;-67
2021/12/12 05:09:05;;;;;;;334.35;86.60;;;;;;;;;;5073651;28;20205;-67
2021/12/12 05:11:35;;;;;;;312.63;81.35;;;;;;;;;;5074245;28;20670;-68
2021/12/12 05:14:06;;;;;;;287.20;81.95;;;;;;;;;;5073792;28;20244;-67
2021/12/12 05:16:34;;;;;;;280.92;80.53;;;;;;;;;;5073824;28;20215;-67
2021/12/12 05:19:05;;;;;;;257.83;77.75;;;;;;;;;;5073631;28;20971;-68
2021/12/12 05:21:36;;;;;;;272.25;76.95;;;;;;;;;;5074199;28;20651;-67
2021/12/12 05:24:06;;;;;;;274.30;77.68;;;;;;;;;;5073934;28;20212;-67
2021/12/12 05:26:35;;;;;;;279.90;78.20;;;;;;;;;;5073915;28;20208;-68
2021/12/12 05:29:05;;;;;;;288.65;78.47;;;;;;;;;;5073607;28;20299;-68
2021/12/12 05:31:33;;;;;;;304.05;83.72;;;;;;;;;;5073535;28;20209;-69
2021/12/12 05:34:02;;;;;;;280.05;75.97;;;;;;;;;;5073214;28;20209;-67
2021/12/12 05:36:30;;;;;;;297.73;80.05;;;;;;;;;;5073356;28;20220;-66
2021/12/12 05:39:00;;;;;;;306.27;79.32;;;;;;;;;;5073332;28;20202;-67
2021/12/12 05:41:28;;;;;;;298.92;78.63;;;;;;;;;;5073306;28;20208;-69
2021/12/12 05:43:57;;;;;;;306.27;84.40;;;;;;;;;;5072765;28;20721;-67
2021/12/12 05:46:24;;;;;;;261.92;75.60;;;;;;;;;;5072909;28;20237;-66
2021/12/12 05:48:53;;;;;;;259.60;76.18;;;;;;;;;;5073439;28;20596;-66
2021/12/12 05:51:21;;;;;;;267.77;75.75;;;;;;;;;;5073340;28;20630;-68
2021/12/12 05:53:50;;;;;;;277.35;81.60;;;;;;;;;;5073118;28;20245;-67
2021/12/12 05:56:19;;;;;;;280.42;76.82;;;;;;;;;;5073179;28;20631;-67
2021/12/12 05:58:47;;;;;;;271.25;75.97;;;;;;;;;;5073187;28;20263;-67
2021/12/12 06:01:15;;;;;;;310.45;81.28;;;;;;;;;;5072734;28;20305;-67
2021/12/12 06:03:44;;;;;;;307.20;83.05;;;;;;;;;;5072928;28;20325;-67
2021/12/12 06:06:13;;;;;;;265.13;75.63;;;;;;;;;;5072757;28;20212;-68
2021/12/12 06:08:41;;;;;;;270.98;76.25;;;;;;;;;;5072731;28;20675;-66
2021/12/12 06:11:09;;;;;;;258.88;77.10;;;;;;;;;;5072642;28;20618;-67
2021/12/12 06:13:39;;;;;;;254.30;75.63;;;;;;;;;;5072747;28;20218;-67
2021/12/12 06:16:07;;;;;;;262.65;74.50;;;;;;;;;;5073112;28;20228;-67
2021/12/12 06:18:36;;;;;;;274.63;78.07;;;;;;;;;;5072723;28;20201;-66
2021/12/12 06:21:04;;;;;;;278.98;76.90;;;;;;;;;;5072604;28;20669;-67
2021/12/12 06:23:32;;;;;;;266.33;74.63;;;;;;;;;;5072445;28;20606;-69
2021/12/12 06:25:59;;;;;;;268.77;73.72;;;;;;;;;;5072629;28;20290;-67
2021/12/12 06:28:29;;;;;;;277.25;75.25;;;;;;;;;;5072603;28;20226;-68
2021/12/12 06:30:59;;;;;;;311.20;77.15;;;;;;;;;;5072515;28;20208;-67
2021/12/12 06:33:26;;;;;;;321.50;81.18;;;;;;;;;;5072225;28;20220;-66
2021/12/12 06:35:54;;;;;;;326.30;83.97;;;;;;;;;;5072010;28;20213;-68
2021/12/12 06:38:22;;;;;;;332.80;78.38;;;;;;;;;;5072155;28;20211;-67
2021/12/12 06:40:50;;;;;;;301.63;75.93;;;;;;;;;;5072759;28;20208;-66
2021/12/12 06:43:19;;;;;;;328.50;76.70;;;;;;;;;;5065132;28;20234;-69
2021/12/12 06:45:46;;;;;;;305.00;74.68;;;;;;;;;;5071982;28;20639;-66
2021/12/12 06:48:16;;;;;;;339.67;76.95;;;;;;;;;;5072096;28;20295;-66
2021/12/12 06:50:44;;;;;;;307.95;75.63;;;;;;;;;;5071784;28;20212;-68
2021/12/12 06:53:13;;;;;;;334.42;77.03;;;;;;;;;;5072030;28;20216;-69
2021/12/12 06:55:44;;;;;;;307.20;76.90;;;;;;;;;;5071823;28;20215;-67
2021/12/12 06:58:12;;;;;;;304.77;78.68;;;;;;;;;;5071877;28;20219;-67
2021/12/12 07:00:40;;;;;;;347.38;76.53;;;;;;;;;;5071849;28;20267;-68
2021/12/12 07:03:08;;;;;;;338.08;75.93;;;;;;;;;;5071509;28;20734;-68
2021/12/12 07:05:37;;;;;;;292.33;72.32;;;;;;;;;;5072082;28;20236;-67
2021/12/12 07:08:05;;;;;;;298.30;71.32;;;;;;;;;;5071595;28;20257;-67
2021/12/12 07:10:33;;;;;;;290.67;71.22;;;;;;;;;;5071477;28;20268;-69
2021/12/12 07:13:02;;;;;;;297.50;72.00;;;;;;;;;;5071474;28;20208;-68
2021/12/12 07:15:31;;;;;;;286.95;72.57;;;;;;;;;;5071391;28;20293;-68
2021/12/12 07:17:59;;;;;;;291.70;72.32;;;;;;;;;;5071144;28;20212;-68
2021/12/12 07:20:27;;;;;;;334.05;76.88;;;;;;;;;;5071327;28;20215;-68
2021/12/12 07:22:56;;;;;;;311.33;73.25;;;;;;;;;;5071696;28;20270;-67
2021/12/12 07:25:24;;;;;;;330.02;77.15;;;;;;;;;;5071396;28;20208;-68
2021/12/12 07:27:52;;;;;;;332.00;79.60;;;;;;;;;;5071151;28;20224;-69
2021/12/12 07:30:20;;;;;;;329.70;75.88;;;;;;;;;;5071153;28;20212;-68
2021/12/12 07:32:47;;;;;;;332.70;74.47;;;;;;;;;;5071467;28;20213;-68
2021/12/12 07:35:15;;;;;;;323.05;75.38;;;;;;;;;;5071282;28;20236;-68
2021/12/12 07:37:44;;;;;;;310.85;74.45;;;;;;;;;;5071067;28;20295;-71
2021/12/12 07:40:13;;;;;;;316.90;72.60;;;;;;;;;;5071052;28;20599;-67
2021/12/12 07:42:43;;;;;;;340.05;73.80;;;;;;;;;;5070826;28;20239;-68
2021/12/12 07:45:11;;;;;;;334.88;74.00;;;;;;;;;;5070959;28;20211;-67
2021/12/12 07:47:38;;;;;;;361.58;74.88;;;;;;;;;;5070946;28;20204;-71
2021/12/12 07:50:07;;;;;;;372.42;77.85;;;;;;;;;;5070838;28;20208;-68
2021/12/12 07:52:35;;;;;;;316.42;71.70;;;;;;;;;;5070885;28;20205;-68
2021/12/12 07:55:02;;;;;;;313.08;72.03;;;;;;;;;;5064286;28;20681;-69
2021/12/12 07:57:31;;;;;;;327.75;75.10;;;;;;;;;;5070878;28;20212;-67
2021/12/12 08:00:00;;;;;;;379.30;81.05;;;;;;;;;;5070284;28;20212;-70
2021/12/12 08:02:28;;;;;;;344.60;74.00;;;;;;;;;;5071069;28;20650;-67
2021/12/12 08:04:56;;;;;;;333.15;75.45;;;;;;;;;;5070839;28;20207;-67
2021/12/12 08:07:25;;;;;;;346.98;74.00;;;;;;;;;;5070415;28;20243;-68
2021/12/12 08:09:53;;;;;;;368.98;81.03;;;;;;;;;;5070412;28;20332;-69
2021/12/12 08:12:25;;;;;;;326.52;74.35;;;;;;;;;;5071055;28;20226;-67
2021/12/12 08:14:54;;;;;;;345.33;75.03;;;;;;;;;;5070910;28;20209;-69
2021/12/12 08:17:23;;;;;;;302.38;71.32;;;;;;;;;;5070626;28;20220;-70
2021/12/12 08:19:51;;;;;;;337.73;81.32;;;;;;;;;;5064006;28;20209;-67
2021/12/12 08:22:19;;;;;;;335.30;76.57;;;;;;;;;;5070377;28;20664;-68
2021/12/12 08:24:47;;;;;;;305.88;72.65;;;;;;;;;;5070591;28;20310;-68
2021/12/12 08:27:14;;;;;;;321.13;75.10;;;;;;;;;;5070488;28;20572;-68
2021/12/12 08:29:42;;;;;;;342.02;76.30;;;;;;;;;;5070528;28;20244;-68
2021/12/12 08:32:12;;;;;;;347.33;77.25;;;;;;;;;;5070841;28;20289;-67
2021/12/12 08:34:39;;;;;;;344.45;76.53;;;;;;;;;;5070441;28;20222;-69
2021/12/12 08:37:07;;;;;;;347.15;76.45;;;;;;;;;;5070355;28;20289;-70
2021/12/12 08:39:35;;;;;;;388.48;78.40;;;;;;;;;;5070379;28;20665;-69
2021/12/12 08:42:03;;;;;;;386.45;76.45;;;;;;;;;;5070422;28;20300;-69
2021/12/12 08:44:31;;;;;;;379.88;78.68;;;;;;;;;;5070471;28;20278;-67
2021/12/12 08:47:00;;;;;;;372.20;75.90;;;;;;;;;;5070418;28;20252;-67
2021/12/12 08:49:30;;;;;;;349.10;76.38;;;;;;;;;;5070210;28;20310;-69
2021/12/12 08:51:59;;;;;;;329.85;74.53;;;;;;;;;;5070504;28;20208;-69
2021/12/12 08:54:28;;;;;;;304.45;71.45;;;;;;;;;;5070496;28;20208;-68
2021/12/12 08:57:02;;;;;;;299.00;72.60;;;;;;;;;;5070271;28;20209;-68
2021/12/12 08:59:30;;;;;;;328.25;74.75;;;;;;;;;;5070392;28;20215;-67
2021/12/12 09:02:02;;;;;;;315.92;75.32;;;;;;;;;;5069559;28;21125;-68
2021/12/12 09:04:32;;;;;;;317.65;77.57;;;;;;;;;;5070462;28;20268;-68
2021/12/12 09:07:01;;;;;;;316.70;74.70;;;;;;;;;;5070099;28;20300;-67
2021/12/12 09:09:30;;;;;;;322.08;75.05;;;;;;;;;;5070028;28;20237;-68
2021/12/12 09:12:01;;;;;;;316.35;74.55;;;;;;;;;;5070048;28;20204;-68
2021/12/12 09:14:32;;;;;;;348.75;78.82;;;;;;;;;;5063585;28;20208;-68
2021/12/12 09:17:04;;;;;;;314.70;74.55;;;;;;;;;;5063402;28;20211;-67
2021/12/12 09:19:44;;;;;;;358.20;79.68;;;;;;;;;;5070583;28;20215;-68
2021/12/12 09:22:13;;;;;;;339.38;82.35;;;;;;;;;;5067757;28;20209;-68
2021/12/12 09:24:45;;;;;;;350.67;83.43;;;;;;;;;;5073690;28;20230;-68
2021/12/12 09:27:15;;;;;;;337.35;83.47;;;;;;;;;;5067285;28;20300;-67
2021/12/12 09:29:45;;;;;;;309.73;85.15;;;;;;;;;;5073402;28;20210;-67
2021/12/12 09:32:13;;;;;;;317.10;90.47;;;;;;;;;;5073423;28;20207;-67
2021/12/12 09:34:44;;;;;;;366.13;98.73;;;;;;;;;;5073583;28;20478;-65
2021/12/12 09:37:12;;;;;;;341.57;100.53;;;;;;;;;;5073488;28;20465;-66
2021/12/12 09:39:43;;;;;;;335.27;98.40;;;;;;;;;;5073340;28;20517;-66
2021/12/12 09:42:17;;;;;;;406.47;106.60;;;;;;;;;;5073841;28;20520;-65
2021/12/12 09:45:00;;;;;;;384.30;105.70;;;;;;;;;;5073343;28;20482;-66
2021/12/12 09:47:57;;;;;;;370.67;112.37;;;;;;;;;;5073207;28;20451;-67
2021/12/12 09:53:29;;;;;;;313.30;110.90;;;;;;;;;;5073182;28;20442;-66
2021/12/12 09:56:02;;;;;;;375.33;126.13;;;;;;;;;;5072783;28;20461;-67
2021/12/12 09:58:33;;;;;;;433.53;114.00;;;;;;;;;;5073049;28;20959;-65
2021/12/12 10:01:03;;;;;;;446.17;109.27;;;;;;;;;;5072644;28;20471;-65
2021/12/12 10:03:35;;;;;;;445.27;103.95;;;;;;;;;;5073052;28;20486;-66
2021/12/12 10:06:08;;;;;;;423.53;99.63;;;;;;;;;;5072765;28;20273;-66
2021/12/12 10:08:45;;;;;;;430.10;100.10;;;;;;;;;;5073015;28;20519;-65
2021/12/12 10:11:19;;;;;;;434.95;98.05;;;;;;;;;;5072706;28;20238;-65
2021/12/12 10:13:48;;;;;;;446.30;98.75;;;;;;;;;;5072723;28;20303;-65
2021/12/12 10:16:20;;;;;;;430.10;96.65;;;;;;;;;;5072723;28;20212;-65
2021/12/12 10:18:52;;;;;;;386.17;91.32;;;;;;;;;;5072657;28;20213;-68
2021/12/12 10:21:23;;;;;;;435.23;93.03;;;;;;;;;;5072605;28;20289;-68
2021/12/12 10:23:56;;;;;;;443.98;102.40;;;;;;;;;;5072430;28;20230;-67
2021/12/12 10:26:26;;;;;;;404.40;90.03;;;;;;;;;;5072657;28;20207;-68
2021/12/12 10:28:59;;;;;;;415.80;92.00;;;;;;;;;;5072519;28;20206;-69
2021/12/12 10:31:34;;;;;;;422.50;95.53;;;;;;;;;;5071987;28;20297;-68
2021/12/12 10:34:03;;;;;;;416.35;90.00;;;;;;;;;;5072144;28;20207;-67
2021/12/12 10:36:35;;;;;;;436.35;90.05;;;;;;;;;;5072463;28;20279;-67
2021/12/12 10:39:05;;;;;;;443.40;91.05;;;;;;;;;;5072168;28;20696;-68
2021/12/12 10:41:36;;;;;;;434.80;86.18;;;;;;;;;;5072168;28;20210;-68
2021/12/12 10:44:09;;;;;;;439.50;89.63;;;;;;;;;;5072194;28;20260;-69
2021/12/12 10:46:39;;;;;;;432.08;86.32;;;;;;;;;;5066146;28;20216;-67
2021/12/12 10:49:12;;;;;;;435.88;87.97;;;;;;;;;;5065904;28;20903;-67
2021/12/12 10:51:45;;;;;;;428.05;83.25;;;;;;;;;;5071957;28;20262;-69
2021/12/12 10:54:15;;;;;;;363.35;81.63;;;;;;;;;;5072025;28;20213;-69
2021/12/12 10:56:44;;;;;;;330.95;83.15;;;;;;;;;;5071878;28;20681;-69
2021/12/12 10:59:17;;;;;;;322.02;80.18;;;;;;;;;;5071798;28;20216;-68
2021/12/12 11:01:46;;;;;;;372.50;81.30;;;;;;;;;;5071343;28;20224;-68
2021/12/12 11:04:16;;;;;;;391.25;81.72;;;;;;;;;;5071584;28;20702;-69
2021/12/12 11:06:48;;;;;;;414.13;82.85;;;;;;;;;;5071670;28;20681;-69
2021/12/12 11:09:18;;;;;;;426.98;83.55;;;;;;;;;;5071477;28;20244;-68
2021/12/12 11:11:46;;;;;;;328.75;77.70;;;;;;;;;;5071535;28;20209;-68
2021/12/12 11:14:18;;;;;;;416.73;82.22;;;;;;;;;;5071723;28;20208;-68
2021/12/12 11:16:48;;;;;;;340.70;78.75;;;;;;;;;;5071727;28;20210;-68
2021/12/12 11:19:17;;;;;;;267.83;73.15;;;;;;;;;;5071311;28;20205;-68
2021/12/12 11:21:48;;;;;;;262.80;76.00;;;;;;;;;;5071415;28;20309;-68
2021/12/12 11:24:20;;;;;;;259.10;72.03;;;;;;;;;;5071272;28;20240;-68
2021/12/12 11:26:50;;;;;;;265.35;72.50;;;;;;;;;;5071346;28;20212;-68
2021/12/12 11:29:19;;;;;;;220.15;65.93;;;;;;;;;;5071547;28;20222;-69
2021/12/12 11:31:48;;;;;;;219.65;67.22;;;;;;;;;;5071193;28;20292;-68
2021/12/12 11:34:16;;;;;;;233.30;67.38;;;;;;;;;;5071167;28;20312;-68
2021/12/12 11:36:52;;;;;;;230.35;67.30;;;;;;;;;;5071299;28;20204;-68
2021/12/12 11:39:22;;;;;;;235.68;68.05;;;;;;;;;;5071317;28;20204;-68
2021/12/12 11:41:56;;;;;;;238.73;71.40;;;;;;;;;;5070820;28;20212;-68
2021/12/12 11:44:26;;;;;;;267.30;71.00;;;;;;;;;;5070438;28;20239;-68
2021/12/12 11:46:58;;;;;;;270.30;69.15;;;;;;;;;;5071198;28;20295;-69
2021/12/12 11:49:26;;;;;;;308.08;73.40;;;;;;;;;;5071165;28;20211;-67
2021/12/12 11:51:59;;;;;;;344.05;78.78;;;;;;;;;;5070705;28;20236;-68
2021/12/12 11:54:34;;;;;;;327.73;78.53;;;;;;;;;;5071001;28;20903;-68
2021/12/12 11:57:04;;;;;;;322.58;73.93;;;;;;;;;;5070807;28;20213;-68
2021/12/12 11:59:34;;;;;;;364.75;75.93;;;;;;;;;;5071001;28;20214;-68
2021/12/12 12:02:04;;;;;;;246.63;64.75;;;;;;;;;;5070370;28;20229;-68
2021/12/12 12:04:39;;;;;;;272.85;68.47;;;;;;;;;;5070729;28;20697;-67
2021/12/12 12:07:12;;;;;;;346.75;74.55;;;;;;;;;;5070765;28;20618;-68
2021/12/12 12:09:50;;;;;;;370.83;75.43;;;;;;;;;;5070435;28;20244;-68
2021/12/12 12:12:25;;;;;;;329.90;73.00;;;;;;;;;;5070692;28;20204;-68
2021/12/12 12:15:05;;;;;;;343.45;74.32;;;;;;;;;;5070885;28;20208;-68
2021/12/12 12:17:35;;;;;;;348.40;74.50;;;;;;;;;;5070625;28;20884;-68
2021/12/12 12:20:08;;;;;;;365.55;75.95;;;;;;;;;;5070561;28;20643;-68
2021/12/12 12:22:40;;;;;;;443.05;82.07;;;;;;;;;;5070552;28;20204;-68
2021/12/12 12:25:18;;;;;;;434.17;78.72;;;;;;;;;;5070467;28;20238;-69
2021/12/12 12:27:54;;;;;;;436.42;79.65;;;;;;;;;;5070457;28;20568;-68
2021/12/12 12:30:49;;;;;;;439.42;83.20;;;;;;;;;;5070233;28;20204;-68
2021/12/12 12:33:40;;;;;;;432.77;77.53;;;;;;;;;;5041274;28;20200;-69
2021/12/12 12:36:26;;;;;;;434.85;79.30;;;;;;;;;;5070648;28;20216;-68
2021/12/12 12:39:17;;;;;;;432.15;77.90;;;;;;;;;;5070747;28;20269;-69
2021/12/12 12:42:04;;;;;;;428.45;82.18;;;;;;;;;;5070597;28;20630;-69
2021/12/12 12:44:46;;;;;;;434.45;77.93;;;;;;;;;;5070240;28;20228;-68
2021/12/12 12:47:28;;;;;;;433.95;78.80;;;;;;;;;;5070664;28;20211;-69
2021/12/12 12:50:14;;;;;;;441.88;82.78;;;;;;;;;;5070250;28;20711;-68
2021/12/12 12:53:02;;;;;;;430.80;77.18;;;;;;;;;;5070457;28;20209;-68
2021/12/12 12:55:48;;;;;;;434.65;80.10;;;;;;;;;;5074097;28;20239;-68
2021/12/12 12:58:31;;;;;;;431.02;81.13;;;;;;;;;;5074517;28;20208;-68
2021/12/12 13:01:04;;;;;;;435.80;82.60;;;;;;;;;;5073889;28;20285;-69
2021/12/12 13:03:36;;;;;;;442.63;82.18;;;;;;;;;;5073962;28;20205;-70
2021/12/12 13:06:21;;;;;;;438.23;82.30;;;;;;;;;;5074242;28;20832;-68
2021/12/12 13:09:05;;;;;;;440.83;82.15;;;;;;;;;;5067262;28;20291;-69
2021/12/12 13:11:38;;;;;;;431.75;82.90;;;;;;;;;;5074206;28;20209;-71
2021/12/12 13:14:12;;;;;;;444.10;85.43;;;;;;;;;;5067934;28;20210;-69
2021/12/12 13:16:45;;;;;;;440.85;84.07;;;;;;;;;;5068283;28;20203;-68
2021/12/12 13:19:14;;;;;;;435.58;81.70;;;;;;;;;;5068143;28;20288;-71
2021/12/12 13:21:47;;;;;;;447.80;89.50;;;;;;;;;;5066922;28;20209;-68
2021/12/12 13:24:17;;;;;;;436.15;80.85;;;;;;;;;;5067165;28;20208;-70
2021/12/12 13:26:59;;;;;;;436.58;81.30;;;;;;;;;;5073488;28;20689;-69
2021/12/12 13:29:36;;;;;;;435.33;80.45;;;;;;;;;;5068374;28;20205;-70
2021/12/12 13:32:05;;;;;;;437.33;79.55;;;;;;;;;;5068326;28;20208;-69
2021/12/12 13:34:37;;;;;;;433.95;79.53;;;;;;;;;;5073563;28;20212;-70
2021/12/12 13:37:11;;;;;;;435.25;78.60;;;;;;;;;;5067609;28;20228;-69
2021/12/12 13:39:45;;;;;;;437.00;79.70;;;;;;;;;;5067303;28;20592;-69
2021/12/12 13:42:21;;;;;;;429.40;77.55;;;;;;;;;;5067454;28;20213;-70
2021/12/12 13:45:06;;;;;;;433.40;78.93;;;;;;;;;;5073245;28;20251;-71
2021/12/12 13:47:58;;;;;;;380.98;75.95;;;;;;;;;;5073232;28;20750;-70
2021/12/12 13:50:29;;;;;;;386.38;74.28;;;;;;;;;;5073175;28;20291;-68
2021/12/12 13:53:00;;;;;;;382.83;74.75;;;;;;;;;;5073485;28;20233;-68
2021/12/12 13:55:30;;;;;;;378.92;73.60;;;;;;;;;;5073204;28;20310;-70
2021/12/12 13:58:04;;;;;;;353.17;72.45;;;;;;;;;;5072751;28;20213;-68
2021/12/12 14:00:33;;;;;;;379.92;73.22;;;;;;;;;;5072837;28;20224;-68
2021/12/12 14:03:02;;;;;;;394.40;74.50;;;;;;;;;;5073013;28;20207;-68
2021/12/12 14:05:31;;;;;;;410.80;75.40;;;;;;;;;;5072269;28;20259;-68
2021/12/12 14:08:07;;;;;;;403.50;76.25;;;;;;;;;;5072677;28;20213;-68
2021/12/12 14:10:36;;;;;;;429.35;76.90;;;;;;;;;;5073002;28;20612;-68
2021/12/12 14:13:06;;;;;;;425.70;76.35;;;;;;;;;;5072880;28;20209;-69
2021/12/12 14:15:35;;;;;;;426.10;73.95;;;;;;;;;;5073068;28;20212;-68
2021/12/12 14:18:05;;;;;;;433.48;75.53;;;;;;;;;;5072681;28;20213;-69
2021/12/12 14:20:35;;;;;;;431.65;75.28;;;;;;;;;;5066400;28;20669;-69
2021/12/12 14:23:03;;;;;;;425.58;72.55;;;;;;;;;;5065853;28;20692;-69
2021/12/12 14:25:32;;;;;;;430.80;75.07;;;;;;;;;;5072739;28;20286;-68
2021/12/12 14:28:03;;;;;;;424.85;72.45;;;;;;;;;;5072327;28;20208;-68
2021/12/12 14:30:38;;;;;;;428.35;74.15;;;;;;;;;;5072583;28;20216;-68
2021/12/12 14:33:06;;;;;;;421.02;73.80;;;;;;;;;;5072339;28;20200;-69
2021/12/12 14:35:36;;;;;;;422.15;72.13;;;;;;;;;;5073064;28;20712;-70
2021/12/12 14:38:04;;;;;;;421.60;72.47;;;;;;;;;;5072740;28;20220;-70
2021/12/12 14:40:33;;;;;;;423.70;72.80;;;;;;;;;;5072366;28;20207;-67